Plentywood (PWD)
Plentywood, MT
Field Elevation: 2251
Lat: 48°47.32N  Long: 104°31.39W
CTAF/Unicom Freq: 122.8000
   
     For Weather-by-Phone, call 406-765-2149
Weather Advisories
2016-02-07   17:07 Z
Altimeter 30.09" Hg
Wind 310° @ 29 KT
Gusts 44 KT
Visibility 10 SM
Temperature -2° C (28° F)
Dewpoint -8° C (18° F)
Relative Humidity 64%
Density Altitude --
Condensation Altitude 5,300 feet
Wind Chill: -11° C (12° F)
Wind and Runways
Indicated Runway = 30
Headwind = 29 kt
Crosswind = 5 kt
History
 
 
 
More Info
All DigiWx sites map
NOAA Forecast
 
Airport IQ 5010
(S59) Libby
(6S5) Ravalli County
 
about DigiWx
 
FAA Disclaimer: The data displayed is for advisory purposes only and is not to be used for flight planning or operations. For official data, please call 406-765-2149 to hear the current automated AWOS voice message.
  METAR PWD 071707Z AUTO 31029G44KT VIS 10 SM M02/M08 A3009